sensor_id;sensor_type;location;lat;lon;timestamp;temperature;humidity
71839;SHT31;59687;37.520;15.068;2022-12-18T00:01:26;13.04;84.12
71839;SHT31;59687;37.520;15.068;2022-12-18T00:03:55;13.01;84.07
71839;SHT31;59687;37.520;15.068;2022-12-18T00:06:24;13.04;84.05
71839;SHT31;59687;37.520;15.068;2022-12-18T00:08:52;13.05;84.18
71839;SHT31;59687;37.520;15.068;2022-12-18T00:11:22;13.05;83.97
71839;SHT31;59687;37.520;15.068;2022-12-18T00:13:49;13.09;83.65
71839;SHT31;59687;37.520;15.068;2022-12-18T00:16:19;13.11;83.29
71839;SHT31;59687;37.520;15.068;2022-12-18T00:18:48;13.11;83.08
71839;SHT31;59687;37.520;15.068;2022-12-18T00:21:18;13.12;82.84
71839;SHT31;59687;37.520;15.068;2022-12-18T00:23:46;13.14;82.68
71839;SHT31;59687;37.520;15.068;2022-12-18T00:26:16;13.15;82.56
71839;SHT31;59687;37.520;15.068;2022-12-18T00:28:45;13.14;82.57
71839;SHT31;59687;37.520;15.068;2022-12-18T00:31:19;13.15;82.04
71839;SHT31;59687;37.520;15.068;2022-12-18T00:33:46;13.14;81.95
71839;SHT31;59687;37.520;15.068;2022-12-18T00:36:19;13.14;81.80
71839;SHT31;59687;37.520;15.068;2022-12-18T00:38:47;13.15;81.88
71839;SHT31;59687;37.520;15.068;2022-12-18T00:41:18;13.14;81.59
71839;SHT31;59687;37.520;15.068;2022-12-18T00:44:06;13.16;81.44
71839;SHT31;59687;37.520;15.068;2022-12-18T00:46:33;13.15;81.38
71839;SHT31;59687;37.520;15.068;2022-12-18T00:49:01;13.18;81.27
71839;SHT31;59687;37.520;15.068;2022-12-18T00:51:28;13.20;80.78
71839;SHT31;59687;37.520;15.068;2022-12-18T00:53:55;13.18;80.62
71839;SHT31;59687;37.520;15.068;2022-12-18T00:56:23;13.16;80.63
71839;SHT31;59687;37.520;15.068;2022-12-18T00:58:53;13.19;80.44
71839;SHT31;59687;37.520;15.068;2022-12-18T01:01:20;13.15;80.36
71839;SHT31;59687;37.520;15.068;2022-12-18T01:03:47;13.14;80.36
71839;SHT31;59687;37.520;15.068;2022-12-18T01:06:15;13.11;80.50
71839;SHT31;59687;37.520;15.068;2022-12-18T01:08:43;13.09;80.59
71839;SHT31;59687;37.520;15.068;2022-12-18T01:11:16;13.04;80.45
71839;SHT31;59687;37.520;15.068;2022-12-18T01:13:44;13.02;80.31
71839;SHT31;59687;37.520;15.068;2022-12-18T01:16:12;13.01;80.27
71839;SHT31;59687;37.520;15.068;2022-12-18T01:18:39;12.97;80.39
71839;SHT31;59687;37.520;15.068;2022-12-18T01:21:08;12.95;80.58
71839;SHT31;59687;37.520;15.068;2022-12-18T01:23:36;12.92;80.38
71839;SHT31;59687;37.520;15.068;2022-12-18T01:26:09;12.91;80.51
71839;SHT31;59687;37.520;15.068;2022-12-18T01:28:36;12.87;80.52
71839;SHT31;59687;37.520;15.068;2022-12-18T01:31:25;12.87;80.43
71839;SHT31;59687;37.520;15.068;2022-12-18T01:33:54;12.84;80.39
71839;SHT31;59687;37.520;15.068;2022-12-18T01:36:24;12.79;80.56
71839;SHT31;59687;37.520;15.068;2022-12-18T01:38:52;12.79;80.38
71839;SHT31;59687;37.520;15.068;2022-12-18T01:41:26;12.79;80.43
71839;SHT31;59687;37.520;15.068;2022-12-18T01:43:54;12.76;80.41
71839;SHT31;59687;37.520;15.068;2022-12-18T01:46:23;12.76;80.53
71839;SHT31;59687;37.520;15.068;2022-12-18T01:48:54;12.74;80.41
71839;SHT31;59687;37.520;15.068;2022-12-18T01:51:23;12.72;80.41
71839;SHT31;59687;37.520;15.068;2022-12-18T01:53:51;12.67;80.21
71839;SHT31;59687;37.520;15.068;2022-12-18T01:56:21;12.66;80.23
71839;SHT31;59687;37.520;15.068;2022-12-18T01:58:59;12.67;79.65
71839;SHT31;59687;37.520;15.068;2022-12-18T02:01:30;12.67;79.88
71839;SHT31;59687;37.520;15.068;2022-12-18T02:04:22;12.64;79.67
71839;SHT31;59687;37.520;15.068;2022-12-18T02:07:07;12.63;79.97
71839;SHT31;59687;37.520;15.068;2022-12-18T02:13:01;12.53;79.89
71839;SHT31;59687;37.520;15.068;2022-12-18T02:15:40;12.55;79.90
71839;SHT31;59687;37.520;15.068;2022-12-18T02:18:21;12.50;79.72
71839;SHT31;59687;37.520;15.068;2022-12-18T02:21:29;12.49;79.62
71839;SHT31;59687;37.520;15.068;2022-12-18T02:26:49;12.42;79.92
71839;SHT31;59687;37.520;15.068;2022-12-18T02:29:24;12.39;80.15
71839;SHT31;59687;37.520;15.068;2022-12-18T02:31:56;12.36;79.98
71839;SHT31;59687;37.520;15.068;2022-12-18T02:34:29;12.36;80.04
71839;SHT31;59687;37.520;15.068;2022-12-18T02:37:00;12.30;80.28
71839;SHT31;59687;37.520;15.068;2022-12-18T02:39:30;12.30;80.47
71839;SHT31;59687;37.520;15.068;2022-12-18T02:42:02;12.28;80.13
71839;SHT31;59687;37.520;15.068;2022-12-18T02:44:45;12.25;80.44
71839;SHT31;59687;37.520;15.068;2022-12-18T02:47:24;12.24;80.39
71839;SHT31;59687;37.520;15.068;2022-12-18T02:50:05;12.20;80.69
71839;SHT31;59687;37.520;15.068;2022-12-18T02:53:08;12.18;80.52
71839;SHT31;59687;37.520;15.068;2022-12-18T02:58:32;12.17;80.56
71839;SHT31;59687;37.520;15.068;2022-12-18T03:01:15;12.14;80.79
71839;SHT31;59687;37.520;15.068;2022-12-18T03:03:57;12.08;81.50
71839;SHT31;59687;37.520;15.068;2022-12-18T03:06:35;12.06;81.25
71839;SHT31;59687;37.520;15.068;2022-12-18T03:09:09;12.05;81.66
71839;SHT31;59687;37.520;15.068;2022-12-18T03:11:40;12.04;81.60
71839;SHT31;59687;37.520;15.068;2022-12-18T03:14:30;12.02;81.68
71839;SHT31;59687;37.520;15.068;2022-12-18T03:17:00;11.99;81.72
71839;SHT31;59687;37.520;15.068;2022-12-18T03:19:32;11.98;82.13
71839;SHT31;59687;37.520;15.068;2022-12-18T03:22:02;11.98;81.96
71839;SHT31;59687;37.520;15.068;2022-12-18T03:24:39;11.97;82.02
71839;SHT31;59687;37.520;15.068;2022-12-18T03:27:12;11.95;81.78
71839;SHT31;59687;37.520;15.068;2022-12-18T03:29:45;11.90;82.26
71839;SHT31;59687;37.520;15.068;2022-12-18T03:32:25;11.93;82.44
71839;SHT31;59687;37.520;15.068;2022-12-18T03:35:00;11.94;82.22
71839;SHT31;59687;37.520;15.068;2022-12-18T03:37:32;11.90;82.35
71839;SHT31;59687;37.520;15.068;2022-12-18T03:40:00;11.90;82.55
71839;SHT31;59687;37.520;15.068;2022-12-18T03:43:09;11.87;82.61
71839;SHT31;59687;37.520;15.068;2022-12-18T03:45:42;11.88;82.73
71839;SHT31;59687;37.520;15.068;2022-12-18T03:48:20;11.86;82.77
71839;SHT31;59687;37.520;15.068;2022-12-18T03:51:12;11.87;82.95
71839;SHT31;59687;37.520;15.068;2022-12-18T03:53:57;11.86;83.16
71839;SHT31;59687;37.520;15.068;2022-12-18T03:56:36;11.87;83.21
71839;SHT31;59687;37.520;15.068;2022-12-18T03:59:07;11.86;83.26
71839;SHT31;59687;37.520;15.068;2022-12-18T04:01:40;11.87;83.26
71839;SHT31;59687;37.520;15.068;2022-12-18T04:04:12;11.86;83.58
71839;SHT31;59687;37.520;15.068;2022-12-18T04:06:42;11.87;83.53
71839;SHT31;59687;37.520;15.068;2022-12-18T04:09:11;11.88;83.72
71839;SHT31;59687;37.520;15.068;2022-12-18T04:11:43;11.88;83.68
71839;SHT31;59687;37.520;15.068;2022-12-18T04:14:14;11.88;83.66
71839;SHT31;59687;37.520;15.068;2022-12-18T04:16:43;11.86;83.64
71839;SHT31;59687;37.520;15.068;2022-12-18T04:19:14;11.83;83.98
71839;SHT31;59687;37.520;15.068;2022-12-18T04:21:43;11.83;84.11
71839;SHT31;59687;37.520;15.068;2022-12-18T04:24:12;11.80;84.35
71839;SHT31;59687;37.520;15.068;2022-12-18T04:26:47;11.76;84.55
71839;SHT31;59687;37.520;15.068;2022-12-18T04:29:22;11.77;84.50
71839;SHT31;59687;37.520;15.068;2022-12-18T04:31:49;11.76;84.49
71839;SHT31;59687;37.520;15.068;2022-12-18T04:34:16;11.74;84.45
71839;SHT31;59687;37.520;15.068;2022-12-18T04:36:49;11.74;84.08
71839;SHT31;59687;37.520;15.068;2022-12-18T04:39:17;11.71;84.03
71839;SHT31;59687;37.520;15.068;2022-12-18T04:41:45;11.69;83.88
71839;SHT31;59687;37.520;15.068;2022-12-18T04:44:12;11.70;83.76
71839;SHT31;59687;37.520;15.068;2022-12-18T04:46:39;11.67;83.68
71839;SHT31;59687;37.520;15.068;2022-12-18T04:49:06;11.63;83.79
71839;SHT31;59687;37.520;15.068;2022-12-18T04:51:33;11.63;83.60
71839;SHT31;59687;37.520;15.068;2022-12-18T04:54:02;11.60;83.58
71839;SHT31;59687;37.520;15.068;2022-12-18T04:56:31;11.59;84.10
71839;SHT31;59687;37.520;15.068;2022-12-18T04:58:58;11.55;84.07
71839;SHT31;59687;37.520;15.068;2022-12-18T05:01:25;11.53;83.99
71839;SHT31;59687;37.520;15.068;2022-12-18T05:03:56;11.50;83.93
71839;SHT31;59687;37.520;15.068;2022-12-18T05:06:23;11.49;83.94
71839;SHT31;59687;37.520;15.068;2022-12-18T05:08:50;11.49;84.00
71839;SHT31;59687;37.520;15.068;2022-12-18T05:11:17;11.52;84.04
71839;SHT31;59687;37.520;15.068;2022-12-18T05:13:45;11.47;84.30
71839;SHT31;59687;37.520;15.068;2022-12-18T05:16:13;11.50;84.50
71839;SHT31;59687;37.520;15.068;2022-12-18T05:18:40;11.47;84.66
71839;SHT31;59687;37.520;15.068;2022-12-18T05:21:07;11.50;84.57
71839;SHT31;59687;37.520;15.068;2022-12-18T05:23:35;11.47;84.60
71839;SHT31;59687;37.520;15.068;2022-12-18T05:26:05;11.52;84.71
71839;SHT31;59687;37.520;15.068;2022-12-18T05:28:34;11.50;84.55
71839;SHT31;59687;37.520;15.068;2022-12-18T05:31:02;11.53;84.75
71839;SHT31;59687;37.520;15.068;2022-12-18T05:33:32;11.47;84.81
71839;SHT31;59687;37.520;15.068;2022-12-18T05:36:01;11.50;84.80
71839;SHT31;59687;37.520;15.068;2022-12-18T05:38:30;11.62;84.42
71839;SHT31;59687;37.520;15.068;2022-12-18T05:40:59;11.59;84.34
71839;SHT31;59687;37.520;15.068;2022-12-18T05:43:27;11.56;84.64
71839;SHT31;59687;37.520;15.068;2022-12-18T05:45:55;11.50;84.89
71839;SHT31;59687;37.520;15.068;2022-12-18T05:48:23;11.52;84.78
71839;SHT31;59687;37.520;15.068;2022-12-18T05:50:50;11.50;84.69
71839;SHT31;59687;37.520;15.068;2022-12-18T05:53:19;11.46;84.57
71839;SHT31;59687;37.520;15.068;2022-12-18T05:55:47;11.46;84.44
71839;SHT31;59687;37.520;15.068;2022-12-18T05:58:16;11.44;84.40
71839;SHT31;59687;37.520;15.068;2022-12-18T06:00:45;11.40;84.37
71839;SHT31;59687;37.520;15.068;2022-12-18T06:03:12;11.43;84.43
71839;SHT31;59687;37.520;15.068;2022-12-18T06:05:44;11.44;83.79
71839;SHT31;59687;37.520;15.068;2022-12-18T06:08:14;11.50;83.43
71839;SHT31;59687;37.520;15.068;2022-12-18T06:10:41;11.55;82.99
71839;SHT31;59687;37.520;15.068;2022-12-18T06:13:08;11.58;82.42
71839;SHT31;59687;37.520;15.068;2022-12-18T06:15:38;11.66;81.56
71839;SHT31;59687;37.520;15.068;2022-12-18T06:18:06;11.84;80.60
71839;SHT31;59687;37.520;15.068;2022-12-18T06:20:33;12.08;79.67
71839;SHT31;59687;37.520;15.068;2022-12-18T06:23:00;12.29;78.21
71839;SHT31;59687;37.520;15.068;2022-12-18T06:25:27;12.40;77.58
71839;SHT31;59687;37.520;15.068;2022-12-18T06:27:54;12.46;77.09
71839;SHT31;59687;37.520;15.068;2022-12-18T06:30:21;12.47;76.06
71839;SHT31;59687;37.520;15.068;2022-12-18T06:32:49;12.53;75.62
71839;SHT31;59687;37.520;15.068;2022-12-18T06:35:20;12.59;74.97
71839;SHT31;59687;37.520;15.068;2022-12-18T06:37:47;12.85;73.97
71839;SHT31;59687;37.520;15.068;2022-12-18T06:40:14;13.04;73.24
71839;SHT31;59687;37.520;15.068;2022-12-18T06:42:41;13.19;72.31
71839;SHT31;59687;37.520;15.068;2022-12-18T06:45:08;13.23;71.47
71839;SHT31;59687;37.520;15.068;2022-12-18T06:47:36;13.27;70.81
71839;SHT31;59687;37.520;15.068;2022-12-18T06:50:03;13.38;70.35
71839;SHT31;59687;37.520;15.068;2022-12-18T06:52:33;13.47;69.96
71839;SHT31;59687;37.520;15.068;2022-12-18T06:55:00;13.67;68.62
71839;SHT31;59687;37.520;15.068;2022-12-18T06:57:26;14.01;67.68
71839;SHT31;59687;37.520;15.068;2022-12-18T06:59:54;14.84;66.10
71839;SHT31;59687;37.520;15.068;2022-12-18T07:02:20;15.78;62.82
71839;SHT31;59687;37.520;15.068;2022-12-18T07:04:47;16.63;60.83
71839;SHT31;59687;37.520;15.068;2022-12-18T07:07:14;17.60;56.87
71839;SHT31;59687;37.520;15.068;2022-12-18T07:09:41;18.58;53.47
71839;SHT31;59687;37.520;15.068;2022-12-18T07:12:09;19.65;51.89
71839;SHT31;59687;37.520;15.068;2022-12-18T07:14:36;20.55;48.60
71839;SHT31;59687;37.520;15.068;2022-12-18T07:17:03;21.26;46.60
71839;SHT31;59687;37.520;15.068;2022-12-18T07:19:30;21.81;45.27
71839;SHT31;59687;37.520;15.068;2022-12-18T07:21:57;22.41;43.65
71839;SHT31;59687;37.520;15.068;2022-12-18T07:24:24;22.95;42.87
71839;SHT31;59687;37.520;15.068;2022-12-18T07:26:51;23.37;41.73
71839;SHT31;59687;37.520;15.068;2022-12-18T07:29:19;23.99;40.55
71839;SHT31;59687;37.520;15.068;2022-12-18T07:31:46;24.62;39.30
71839;SHT31;59687;37.520;15.068;2022-12-18T07:34:14;25.18;38.31
71839;SHT31;59687;37.520;15.068;2022-12-18T07:36:42;25.72;37.62
71839;SHT31;59687;37.520;15.068;2022-12-18T07:39:11;26.08;36.85
71839;SHT31;59687;37.520;15.068;2022-12-18T07:41:39;26.44;36.05
71839;SHT31;59687;37.520;15.068;2022-12-18T07:44:18;26.89;35.73
71839;SHT31;59687;37.520;15.068;2022-12-18T07:46:45;27.31;35.18
71839;SHT31;59687;37.520;15.068;2022-12-18T07:49:11;27.59;34.74
71839;SHT31;59687;37.520;15.068;2022-12-18T07:51:40;27.94;33.59
71839;SHT31;59687;37.520;15.068;2022-12-18T07:54:07;28.24;33.97
71839;SHT31;59687;37.520;15.068;2022-12-18T07:56:35;28.48;34.19
71839;SHT31;59687;37.520;15.068;2022-12-18T07:59:02;28.52;34.07
71839;SHT31;59687;37.520;15.068;2022-12-18T08:01:30;28.67;32.92
71839;SHT31;59687;37.520;15.068;2022-12-18T08:03:58;28.74;33.26
71839;SHT31;59687;37.520;15.068;2022-12-18T08:06:25;28.84;32.28
71839;SHT31;59687;37.520;15.068;2022-12-18T08:08:55;28.86;32.14
71839;SHT31;59687;37.520;15.068;2022-12-18T08:11:25;28.90;31.98
71839;SHT31;59687;37.520;15.068;2022-12-18T08:13:53;28.80;32.08
71839;SHT31;59687;37.520;15.068;2022-12-18T08:16:22;28.66;31.65
71839;SHT31;59687;37.520;15.068;2022-12-18T08:18:49;28.29;31.92
71839;SHT31;59687;37.520;15.068;2022-12-18T08:21:22;28.31;32.10
71839;SHT31;59687;37.520;15.068;2022-12-18T08:23:51;28.21;31.87
71839;SHT31;59687;37.520;15.068;2022-12-18T08:26:20;28.44;31.90
71839;SHT31;59687;37.520;15.068;2022-12-18T08:28:48;28.57;30.79
71839;SHT31;59687;37.520;15.068;2022-12-18T08:31:15;28.53;31.71
71839;SHT31;59687;37.520;15.068;2022-12-18T10:01:53;29.43;30.02
71839;SHT31;59687;37.520;15.068;2022-12-18T10:04:20;29.97;29.86
71839;SHT31;59687;37.520;15.068;2022-12-18T10:06:57;30.83;29.29
71839;SHT31;59687;37.520;15.068;2022-12-18T10:12:55;33.55;25.87
71839;SHT31;59687;37.520;15.068;2022-12-18T10:21:01;36.77;23.34
71839;SHT31;59687;37.520;15.068;2022-12-18T10:23:44;37.25;22.43
71839;SHT31;59687;37.520;15.068;2022-12-18T10:26:14;38.39;21.45
71839;SHT31;59687;37.520;15.068;2022-12-18T10:28:41;37.74;21.51
71839;SHT31;59687;37.520;15.068;2022-12-18T10:31:20;37.46;22.33
71839;SHT31;59687;37.520;15.068;2022-12-18T10:33:48;36.87;22.12
71839;SHT31;59687;37.520;15.068;2022-12-18T10:36:15;36.02;23.20
71839;SHT31;59687;37.520;15.068;2022-12-18T10:38:42;35.27;24.22
71839;SHT31;59687;37.520;15.068;2022-12-18T10:43:47;35.91;24.28
71839;SHT31;59687;37.520;15.068;2022-12-18T10:46:17;34.60;25.41
71839;SHT31;59687;37.520;15.068;2022-12-18T10:48:56;34.19;26.25
71839;SHT31;59687;37.520;15.068;2022-12-18T10:51:32;33.17;27.46
71839;SHT31;59687;37.520;15.068;2022-12-18T10:54:12;33.63;26.87
71839;SHT31;59687;37.520;15.068;2022-12-18T10:56:40;35.53;24.62
71839;SHT31;59687;37.520;15.068;2022-12-18T10:59:10;37.11;23.19
71839;SHT31;59687;37.520;15.068;2022-12-18T11:01:54;36.80;23.30
71839;SHT31;59687;37.520;15.068;2022-12-18T11:04:28;36.82;23.45
71839;SHT31;59687;37.520;15.068;2022-12-18T11:06:59;37.37;22.82
71839;SHT31;59687;37.520;15.068;2022-12-18T11:09:31;37.34;22.69
71839;SHT31;59687;37.520;15.068;2022-12-18T11:12:02;35.48;24.34
71839;SHT31;59687;37.520;15.068;2022-12-18T11:17:35;36.18;23.97
71839;SHT31;59687;37.520;15.068;2022-12-18T11:20:07;37.96;22.12
71839;SHT31;59687;37.520;15.068;2022-12-18T11:22:58;36.12;23.36
71839;SHT31;59687;37.520;15.068;2022-12-18T11:25:25;36.83;23.03
71839;SHT31;59687;37.520;15.068;2022-12-18T11:28:00;36.20;23.57
71839;SHT31;59687;37.520;15.068;2022-12-18T11:30:30;36.62;23.40
71839;SHT31;59687;37.520;15.068;2022-12-18T11:33:16;38.11;22.34
71839;SHT31;59687;37.520;15.068;2022-12-18T11:36:00;38.97;21.21
71839;SHT31;59687;37.520;15.068;2022-12-18T11:38:36;38.48;21.43
71839;SHT31;59687;37.520;15.068;2022-12-18T11:44:11;39.80;20.41
71839;SHT31;59687;37.520;15.068;2022-12-18T11:46:46;39.88;20.16
71839;SHT31;59687;37.520;15.068;2022-12-18T11:49:26;40.00;20.22
71839;SHT31;59687;37.520;15.068;2022-12-18T11:52:18;37.79;21.84
71839;SHT31;59687;37.520;15.068;2022-12-18T11:54:51;38.76;21.39
71839;SHT31;59687;37.520;15.068;2022-12-18T11:57:31;38.01;22.46
71839;SHT31;59687;37.520;15.068;2022-12-18T12:00:12;37.94;22.10
71839;SHT31;59687;37.520;15.068;2022-12-18T12:16:59;32.72;26.93
71839;SHT31;59687;37.520;15.068;2022-12-18T12:25:25;31.26;29.14
71839;SHT31;59687;37.520;15.068;2022-12-18T12:38:46;28.05;36.06
71839;SHT31;59687;37.520;15.068;2022-12-18T12:41:21;27.12;38.28
71839;SHT31;59687;37.520;15.068;2022-12-18T12:44:16;26.49;40.45
71839;SHT31;59687;37.520;15.068;2022-12-18T12:46:47;26.44;40.85
71839;SHT31;59687;37.520;15.068;2022-12-18T12:49:19;27.15;40.45
71839;SHT31;59687;37.520;15.068;2022-12-18T12:51:57;27.08;40.63
71839;SHT31;59687;37.520;15.068;2022-12-18T12:54:28;27.12;40.99
71839;SHT31;59687;37.520;15.068;2022-12-18T12:57:04;26.60;41.52
71839;SHT31;59687;37.520;15.068;2022-12-18T13:00:00;25.92;43.66
71839;SHT31;59687;37.520;15.068;2022-12-18T13:05:48;25.96;44.80
71839;SHT31;59687;37.520;15.068;2022-12-18T13:08:28;25.83;44.39
71839;SHT31;59687;37.520;15.068;2022-12-18T13:10:57;25.61;44.36
71839;SHT31;59687;37.520;15.068;2022-12-18T13:13:55;25.50;45.01
71839;SHT31;59687;37.520;15.068;2022-12-18T13:16:24;24.70;46.58
71839;SHT31;59687;37.520;15.068;2022-12-18T13:18:54;24.38;47.23
71839;SHT31;59687;37.520;15.068;2022-12-18T13:21:30;24.36;46.69
71839;SHT31;59687;37.520;15.068;2022-12-18T13:24:27;23.92;47.75
71839;SHT31;59687;37.520;15.068;2022-12-18T13:26:54;24.01;47.33
71839;SHT31;59687;37.520;15.068;2022-12-18T13:29:47;24.73;45.85
71839;SHT31;59687;37.520;15.068;2022-12-18T13:32:24;24.56;46.10
71839;SHT31;59687;37.520;15.068;2022-12-18T13:37:52;25.11;45.80
71839;SHT31;59687;37.520;15.068;2022-12-18T13:46:29;24.66;47.10
71839;SHT31;59687;37.520;15.068;2022-12-18T13:48:58;24.04;48.07
71839;SHT31;59687;37.520;15.068;2022-12-18T13:51:27;24.39;47.81
71839;SHT31;59687;37.520;15.068;2022-12-18T13:54:02;24.14;47.90
71839;SHT31;59687;37.520;15.068;2022-12-18T13:56:31;24.21;48.20
71839;SHT31;59687;37.520;15.068;2022-12-18T14:01:32;24.21;47.73
71839;SHT31;59687;37.520;15.068;2022-12-18T14:04:22;24.38;48.15
71839;SHT31;59687;37.520;15.068;2022-12-18T14:06:53;24.35;46.36
71839;SHT31;59687;37.520;15.068;2022-12-18T14:09:28;24.21;46.42
71839;SHT31;59687;37.520;15.068;2022-12-18T14:11:57;24.56;45.86
71839;SHT31;59687;37.520;15.068;2022-12-18T14:14:47;25.30;44.74
71839;SHT31;59687;37.520;15.068;2022-12-18T14:17:15;25.15;44.51
71839;SHT31;59687;37.520;15.068;2022-12-18T14:19:48;25.31;44.31
71839;SHT31;59687;37.520;15.068;2022-12-18T14:22:21;25.61;43.63
71839;SHT31;59687;37.520;15.068;2022-12-18T14:25:17;25.42;44.20
71839;SHT31;59687;37.520;15.068;2022-12-18T14:30:42;23.77;47.27
71839;SHT31;59687;37.520;15.068;2022-12-18T14:33:20;23.52;47.91
71839;SHT31;59687;37.520;15.068;2022-12-18T14:36:02;22.96;49.32
71839;SHT31;59687;37.520;15.068;2022-12-18T14:38:36;22.62;50.71
71839;SHT31;59687;37.520;15.068;2022-12-18T14:41:04;22.11;52.51
71839;SHT31;59687;37.520;15.068;2022-12-18T14:43:36;21.88;53.59
71839;SHT31;59687;37.520;15.068;2022-12-18T14:46:19;21.66;54.22
71839;SHT31;59687;37.520;15.068;2022-12-18T14:48:53;21.20;55.98
71839;SHT31;59687;37.520;15.068;2022-12-18T14:51:28;20.90;56.44
71839;SHT31;59687;37.520;15.068;2022-12-18T14:54:03;20.75;56.99
71839;SHT31;59687;37.520;15.068;2022-12-18T14:56:36;20.78;56.56
71839;SHT31;59687;37.520;15.068;2022-12-18T14:59:15;20.87;56.94
71839;SHT31;59687;37.520;15.068;2022-12-18T15:02:10;20.83;57.57
71839;SHT31;59687;37.520;15.068;2022-12-18T15:04:48;20.12;59.83
71839;SHT31;59687;37.520;15.068;2022-12-18T15:07:26;19.76;61.08
71839;SHT31;59687;37.520;15.068;2022-12-18T15:18:01;19.30;63.47
71839;SHT31;59687;37.520;15.068;2022-12-18T15:20:33;19.17;63.88
71839;SHT31;59687;37.520;15.068;2022-12-18T15:23:36;19.04;65.01
71839;SHT31;59687;37.520;15.068;2022-12-18T15:28:45;18.61;66.88
71839;SHT31;59687;37.520;15.068;2022-12-18T15:33:59;18.05;69.74
71839;SHT31;59687;37.520;15.068;2022-12-18T15:36:29;17.86;71.04
71839;SHT31;59687;37.520;15.068;2022-12-18T15:38:57;17.67;72.15
71839;SHT31;59687;37.520;15.068;2022-12-18T15:41:24;17.48;73.04
71839;SHT31;59687;37.520;15.068;2022-12-18T15:43:52;17.44;73.25
71839;SHT31;59687;37.520;15.068;2022-12-18T15:46:23;17.29;73.62
71839;SHT31;59687;37.520;15.068;2022-12-18T15:48:52;17.19;74.36
71839;SHT31;59687;37.520;15.068;2022-12-18T15:51:28;17.12;74.69
71839;SHT31;59687;37.520;15.068;2022-12-18T15:54:01;16.98;75.13
71839;SHT31;59687;37.520;15.068;2022-12-18T15:56:30;16.93;75.86
71839;SHT31;59687;37.520;15.068;2022-12-18T15:59:18;16.81;76.43
71839;SHT31;59687;37.520;15.068;2022-12-18T16:01:50;16.72;77.01
71839;SHT31;59687;37.520;15.068;2022-12-18T16:04:20;16.60;77.64
71839;SHT31;59687;37.520;15.068;2022-12-18T16:06:49;16.54;77.64
71839;SHT31;59687;37.520;15.068;2022-12-18T16:09:39;16.50;78.12
71839;SHT31;59687;37.520;15.068;2022-12-18T16:12:15;16.49;78.17
71839;SHT31;59687;37.520;15.068;2022-12-18T16:14:43;16.50;78.05
71839;SHT31;59687;37.520;15.068;2022-12-18T16:17:11;16.46;78.44
71839;SHT31;59687;37.520;15.068;2022-12-18T16:19:41;16.44;78.85
71839;SHT31;59687;37.520;15.068;2022-12-18T16:22:20;16.41;78.86
71839;SHT31;59687;37.520;15.068;2022-12-18T16:24:48;16.34;79.13
71839;SHT31;59687;37.520;15.068;2022-12-18T16:27:20;16.32;79.61
71839;SHT31;59687;37.520;15.068;2022-12-18T16:29:48;16.27;79.40
71839;SHT31;59687;37.520;15.068;2022-12-18T16:32:19;16.26;79.29
71839;SHT31;59687;37.520;15.068;2022-12-18T16:34:46;16.29;79.04
71839;SHT31;59687;37.520;15.068;2022-12-18T16:37:15;16.22;79.25
71839;SHT31;59687;37.520;15.068;2022-12-18T16:39:42;16.27;78.93
71839;SHT31;59687;37.520;15.068;2022-12-18T16:42:16;16.29;78.91
71839;SHT31;59687;37.520;15.068;2022-12-18T16:44:47;16.26;78.96
71839;SHT31;59687;37.520;15.068;2022-12-18T16:47:16;16.23;78.87
71839;SHT31;59687;37.520;15.068;2022-12-18T16:49:44;16.22;79.04
71839;SHT31;59687;37.520;15.068;2022-12-18T16:52:12;16.22;79.03
71839;SHT31;59687;37.520;15.068;2022-12-18T16:54:39;16.26;78.77
71839;SHT31;59687;37.520;15.068;2022-12-18T16:57:08;16.17;79.07
71839;SHT31;59687;37.520;15.068;2022-12-18T16:59:35;16.15;79.30
71839;SHT31;59687;37.520;15.068;2022-12-18T17:02:02;16.12;79.46
71839;SHT31;59687;37.520;15.068;2022-12-18T17:04:29;16.19;79.37
71839;SHT31;59687;37.520;15.068;2022-12-18T17:06:57;16.15;79.54
71839;SHT31;59687;37.520;15.068;2022-12-18T17:09:25;16.02;79.99
71839;SHT31;59687;37.520;15.068;2022-12-18T17:11:52;16.05;80.00
71839;SHT31;59687;37.520;15.068;2022-12-18T17:14:22;16.02;80.10
71839;SHT31;59687;37.520;15.068;2022-12-18T17:16:53;16.02;80.35
71839;SHT31;59687;37.520;15.068;2022-12-18T17:19:41;15.95;80.61
71839;SHT31;59687;37.520;15.068;2022-12-18T17:22:10;15.94;80.69
71839;SHT31;59687;37.520;15.068;2022-12-18T17:24:37;15.87;81.20
71839;SHT31;59687;37.520;15.068;2022-12-18T17:27:04;15.88;81.42
71839;SHT31;59687;37.520;15.068;2022-12-18T17:29:32;15.87;81.45
71839;SHT31;59687;37.520;15.068;2022-12-18T17:32:04;15.84;81.52
71839;SHT31;59687;37.520;15.068;2022-12-18T17:34:31;15.82;81.69
71839;SHT31;59687;37.520;15.068;2022-12-18T17:36:59;15.74;82.02
71839;SHT31;59687;37.520;15.068;2022-12-18T17:39:26;15.71;82.44
71839;SHT31;59687;37.520;15.068;2022-12-18T17:41:55;15.71;82.34
71839;SHT31;59687;37.520;15.068;2022-12-18T17:44:24;15.70;82.53
71839;SHT31;59687;37.520;15.068;2022-12-18T17:46:51;15.71;82.62
71839;SHT31;59687;37.520;15.068;2022-12-18T17:49:19;15.67;82.74
71839;SHT31;59687;37.520;15.068;2022-12-18T17:51:47;15.70;82.69
71839;SHT31;59687;37.520;15.068;2022-12-18T17:54:14;15.65;83.09
71839;SHT31;59687;37.520;15.068;2022-12-18T17:56:41;15.72;83.10
71839;SHT31;59687;37.520;15.068;2022-12-18T17:59:10;15.82;83.22
71839;SHT31;59687;37.520;15.068;2022-12-18T18:01:37;15.95;83.18
71839;SHT31;59687;37.520;15.068;2022-12-18T18:04:09;16.02;82.99
71839;SHT31;59687;37.520;15.068;2022-12-18T18:06:36;16.13;82.74
71839;SHT31;59687;37.520;15.068;2022-12-18T18:09:03;16.22;82.29
71839;SHT31;59687;37.520;15.068;2022-12-18T18:11:32;16.23;82.91
71839;SHT31;59687;37.520;15.068;2022-12-18T18:14:19;16.24;82.72
71839;SHT31;59687;37.520;15.068;2022-12-18T18:16:49;16.30;82.68
71839;SHT31;59687;37.520;15.068;2022-12-18T18:19:22;16.39;82.87
71839;SHT31;59687;37.520;15.068;2022-12-18T18:21:51;16.49;82.93
71839;SHT31;59687;37.520;15.068;2022-12-18T18:24:20;16.53;84.60
71839;SHT31;59687;37.520;15.068;2022-12-18T18:26:49;16.51;85.13
71839;SHT31;59687;37.520;15.068;2022-12-18T18:29:18;16.37;90.47
71839;SHT31;59687;37.520;15.068;2022-12-18T18:31:46;16.15;93.29
71839;SHT31;59687;37.520;15.068;2022-12-18T18:34:21;15.99;93.06
71839;SHT31;59687;37.520;15.068;2022-12-18T18:36:50;15.94;93.54
71839;SHT31;59687;37.520;15.068;2022-12-18T18:39:18;15.82;94.51
71839;SHT31;59687;37.520;15.068;2022-12-18T18:41:48;15.67;92.16